createdAt,value
2022-10-21T00:01:24.447Z,20.67
2022-10-21T00:03:54.616Z,21.40
2022-10-21T00:06:25.132Z,21.15
2022-10-21T00:08:55.228Z,21.98
2022-10-21T00:11:25.938Z,24.75
2022-10-21T00:16:28.687Z,19.35
2022-10-21T00:18:58.955Z,20.20
2022-10-21T00:21:29.506Z,20.33
2022-10-21T00:23:59.575Z,20.27
2022-10-21T00:26:31.243Z,31.13
2022-10-21T00:29:02.754Z,24.88
2022-10-21T00:31:32.550Z,26.60
2022-10-21T00:34:05.073Z,20.52
2022-10-21T00:36:35.131Z,19.83
2022-10-21T00:39:07.775Z,20.40
2022-10-21T00:41:37.897Z,27.83
2022-10-21T00:44:12.385Z,28.65
2022-10-21T00:47:07.821Z,31.77
2022-10-21T00:49:51.059Z,30.40
2022-10-21T00:52:24.911Z,33.72
2022-10-21T00:54:58.146Z,20.15
2022-10-21T00:57:30.546Z,19.63
2022-10-21T01:00:03.940Z,20.55
2022-10-21T01:02:34.077Z,20.00
2022-10-21T01:05:06.067Z,24.00
2022-10-21T01:07:40.288Z,28.92
2022-10-21T01:10:11.815Z,25.83
2022-10-21T01:12:59.530Z,23.67
2022-10-21T01:15:35.401Z,27.40
2022-10-21T01:18:22.554Z,17.77
2022-10-21T01:21:12.263Z,17.83
2022-10-21T01:23:51.316Z,15.10
2022-10-21T01:26:55.504Z,16.73
2022-10-21T01:29:52.724Z,18.63
2022-10-21T01:32:38.580Z,13.45
2022-10-21T01:35:22.200Z,12.60
2022-10-21T01:38:18.306Z,13.15
2022-10-21T01:41:26.662Z,13.23
2022-10-21T01:44:20.418Z,12.85
2022-10-21T01:47:12.952Z,16.15
2022-10-21T01:49:50.821Z,14.95
2022-10-21T01:52:21.151Z,15.88
2022-10-21T01:55:00.162Z,16.52
2022-10-21T01:57:34.715Z,19.90
2022-10-21T02:00:08.050Z,17.55
2022-10-21T02:02:43.834Z,16.80
2022-10-21T02:05:24.098Z,16.80
2022-10-21T02:07:54.140Z,14.35
2022-10-21T02:10:27.658Z,17.50
2022-10-21T02:13:02.330Z,16.10
2022-10-21T02:15:35.041Z,15.00
2022-10-21T02:18:11.858Z,19.55
2022-10-21T02:20:44.769Z,18.33
2022-10-21T02:23:18.304Z,18.20
2022-10-21T02:25:50.752Z,16.05
2022-10-21T02:28:21.654Z,15.15
2022-10-21T02:31:05.010Z,12.73
2022-10-21T02:33:44.077Z,15.30
2022-10-21T02:36:20.133Z,12.73
2022-10-21T02:38:55.580Z,13.60
2022-10-21T02:41:28.878Z,14.07
2022-10-21T02:44:02.270Z,13.77
2022-10-21T02:46:42.203Z,14.52
2022-10-21T02:49:12.362Z,13.10
2022-10-21T02:51:44.536Z,14.80
2022-10-21T02:54:14.962Z,13.57
2022-10-21T02:56:45.509Z,13.25
2022-10-21T02:59:15.644Z,14.95
2022-10-21T03:01:46.184Z,13.40
2022-10-21T03:04:16.195Z,15.82
2022-10-21T03:06:46.777Z,15.27
2022-10-21T03:09:16.755Z,15.45
2022-10-21T03:11:46.558Z,16.23
2022-10-21T03:14:17.093Z,18.23
2022-10-21T03:16:47.174Z,13.93
2022-10-21T03:19:17.578Z,15.80
2022-10-21T03:21:47.577Z,14.65
2022-10-21T03:24:28.093Z,12.18
2022-10-21T03:26:59.072Z,15.80
2022-10-21T03:29:29.595Z,11.57
2022-10-21T03:31:59.687Z,12.35
2022-10-21T03:34:31.683Z,10.95
2022-10-21T03:37:01.732Z,13.35
2022-10-21T03:39:32.138Z,10.82
2022-10-21T03:42:02.229Z,11.82
2022-10-21T03:44:32.742Z,10.00
2022-10-21T03:47:02.811Z,9.43
2022-10-21T03:52:03.971Z,11.40
2022-10-21T03:54:34.149Z,10.80
2022-10-21T03:57:04.707Z,11.02
2022-10-21T03:59:34.703Z,9.82
2022-10-21T04:02:05.363Z,11.43
2022-10-21T04:04:36.517Z,8.68
2022-10-21T04:07:07.452Z,11.68
2022-10-21T04:09:38.118Z,13.07
2022-10-21T04:12:08.590Z,11.05
2022-10-21T04:14:38.656Z,9.07
2022-10-21T04:17:09.137Z,8.18
2022-10-21T04:19:39.254Z,11.25
2022-10-21T04:22:09.726Z,9.35
2022-10-21T04:24:39.847Z,9.57
2022-10-21T04:27:10.318Z,10.32
2022-10-21T04:29:40.417Z,8.55
2022-10-21T04:32:10.901Z,12.80
2022-10-21T04:37:10.225Z,10.60
2022-10-21T04:39:40.662Z,12.80
2022-10-21T04:42:10.702Z,11.48
2022-10-21T04:44:41.176Z,13.55
2022-10-21T04:47:11.288Z,11.27
2022-10-21T04:49:41.852Z,10.63
2022-10-21T04:52:12.201Z,11.35
2022-10-21T04:54:44.750Z,10.80
2022-10-21T04:57:15.873Z,12.52
2022-10-21T04:59:46.185Z,10.30
2022-10-21T05:04:45.424Z,14.82
2022-10-21T05:07:16.021Z,14.23
2022-10-21T05:09:45.988Z,12.50
2022-10-21T05:12:16.346Z,15.27
2022-10-21T05:17:15.459Z,9.38
2022-10-21T05:19:45.852Z,13.77
2022-10-21T05:22:15.636Z,13.98
2022-10-21T05:24:46.035Z,11.68
2022-10-21T05:27:15.999Z,13.65
2022-10-21T05:29:46.520Z,11.35
2022-10-21T05:32:16.482Z,12.15
2022-10-21T05:34:46.930Z,8.18
2022-10-21T05:37:16.692Z,8.88
2022-10-21T05:39:47.199Z,9.88
2022-10-21T05:42:17.314Z,10.48
2022-10-21T05:44:47.751Z,9.55
2022-10-21T05:47:17.856Z,10.48
2022-10-21T05:49:48.474Z,9.43
2022-10-21T05:52:18.413Z,8.70
2022-10-21T05:54:48.804Z,7.70
2022-10-21T05:57:18.785Z,10.93
2022-10-21T05:59:48.677Z,8.02
2022-10-21T06:02:19.150Z,9.00
2022-10-21T06:04:49.073Z,8.57
2022-10-21T06:07:19.478Z,11.68
2022-10-21T06:09:54.688Z,9.75
2022-10-21T06:12:25.586Z,9.90
2022-10-21T06:17:25.248Z,10.68
2022-10-21T06:19:55.570Z,7.70
2022-10-21T06:24:54.969Z,9.20
2022-10-21T06:27:25.276Z,8.50
2022-10-21T06:32:24.467Z,7.13
2022-10-21T06:34:55.494Z,9.80
2022-10-21T06:37:25.449Z,10.20
2022-10-21T06:39:55.824Z,9.60
2022-10-21T06:42:25.637Z,10.25
2022-10-21T06:44:57.947Z,10.35
2022-10-21T06:47:30.189Z,7.18
2022-10-21T06:50:05.229Z,8.38
2022-10-21T06:52:37.639Z,11.15
2022-10-21T06:55:08.833Z,12.50
2022-10-21T06:57:39.122Z,13.15
2022-10-21T07:00:10.432Z,11.20
2022-10-21T07:02:40.908Z,11.85
2022-10-21T07:05:13.567Z,12.23
2022-10-21T07:07:43.763Z,10.68
2022-10-21T07:10:16.325Z,10.80
2022-10-21T07:12:47.917Z,12.10
2022-10-21T07:15:18.340Z,10.13
2022-10-21T07:17:48.286Z,9.68
2022-10-21T07:20:18.713Z,9.00
2022-10-21T07:22:48.621Z,9.32
2022-10-21T07:25:19.121Z,11.52
2022-10-21T07:27:50.786Z,11.73
2022-10-21T07:30:21.235Z,10.38
2022-10-21T07:32:52.101Z,9.57
2022-10-21T07:35:22.475Z,10.88
2022-10-21T07:37:52.478Z,13.32
2022-10-21T07:40:23.116Z,14.32
2022-10-21T07:42:53.173Z,11.20
2022-10-21T07:45:23.730Z,14.15
2022-10-21T07:47:53.735Z,10.23
2022-10-21T07:50:24.124Z,17.38
2022-10-21T07:53:01.312Z,16.10
2022-10-21T07:55:39.104Z,12.00
2022-10-21T08:00:39.299Z,10.35
2022-10-21T08:03:09.722Z,12.07
2022-10-21T08:05:42.424Z,9.15
2022-10-21T08:08:12.810Z,10.70
2022-10-21T08:10:43.532Z,14.35
2022-10-21T08:13:13.975Z,10.35
2022-10-21T08:15:48.382Z,8.43
2022-10-21T08:18:19.653Z,10.70
2022-10-21T08:20:51.135Z,9.48
2022-10-21T08:23:23.476Z,6.93
2022-10-21T08:25:59.152Z,7.18
2022-10-21T08:28:31.505Z,6.47
2022-10-21T08:31:21.917Z,12.40
2022-10-21T08:33:52.479Z,5.68
2022-10-21T08:36:26.260Z,7.47
2022-10-21T08:39:00.115Z,5.72
2022-10-21T08:41:33.096Z,4.68
2022-10-21T08:44:03.520Z,7.43
2022-10-21T08:46:53.254Z,9.05
2022-10-21T08:49:32.090Z,8.13
2022-10-21T08:52:27.591Z,9.02
2022-10-21T08:55:01.947Z,7.00
2022-10-21T08:57:36.270Z,4.93
2022-10-21T09:00:24.341Z,3.90
2022-10-21T09:03:14.562Z,11.27
2022-10-21T09:06:02.669Z,6.90
2022-10-21T09:08:45.132Z,5.57
2022-10-21T09:11:35.554Z,5.72
2022-10-21T09:14:11.137Z,4.07
2022-10-21T09:17:08.407Z,11.07
2022-10-21T09:19:54.887Z,12.20
2022-10-21T09:22:50.333Z,8.52
2022-10-21T09:25:36.641Z,7.70
2022-10-21T09:28:17.517Z,10.50
2022-10-21T09:30:48.284Z,8.93
2022-10-21T09:33:30.109Z,10.75
2022-10-21T09:36:14.479Z,6.85
2022-10-21T09:38:47.239Z,10.75
2022-10-21T09:41:24.405Z,8.20
2022-10-21T09:43:57.223Z,10.57
2022-10-21T09:46:27.373Z,8.93
2022-10-21T09:49:41.997Z,8.95
2022-10-21T09:51:53.427Z,10.30
2022-10-21T09:54:27.021Z,11.00
2022-10-21T09:57:15.757Z,6.22
2022-10-21T09:59:54.593Z,7.47
2022-10-21T10:02:34.996Z,4.10
2022-10-21T10:05:45.060Z,5.47
2022-10-21T10:08:26.458Z,4.85
2022-10-21T10:11:18.772Z,4.57
2022-10-21T10:13:54.056Z,8.32
2022-10-21T10:16:30.068Z,3.70
2022-10-21T10:19:18.581Z,3.05
2022-10-21T10:22:10.310Z,4.05
2022-10-21T10:24:41.903Z,7.57
2022-10-21T10:27:22.048Z,3.40
2022-10-21T10:29:57.865Z,3.55
2022-10-21T10:32:33.403Z,1.63
2022-10-21T10:35:07.602Z,4.88
2022-10-21T10:37:39.525Z,1.70
2022-10-21T10:40:10.982Z,2.42
2022-10-21T10:42:47.066Z,1.20
2022-10-21T10:45:21.501Z,4.38
2022-10-21T10:48:00.896Z,1.30
2022-10-21T10:50:40.015Z,2.53
2022-10-21T10:53:31.199Z,4.13
2022-10-21T10:56:30.004Z,0.95
2022-10-21T10:59:36.902Z,1.70
2022-10-21T11:02:11.114Z,1.05
2022-10-21T11:04:43.580Z,0.95
2022-10-21T11:07:17.339Z,2.28
2022-10-21T11:09:54.307Z,1.13
2022-10-21T11:12:28.218Z,2.47
2022-10-21T11:15:00.666Z,3.47
2022-10-21T11:17:42.422Z,1.55
2022-10-21T11:20:30.080Z,1.70
2022-10-21T11:23:36.131Z,1.95
2022-10-21T11:26:29.287Z,0.98
2022-10-21T11:29:25.535Z,6.47
2022-10-21T11:32:32.241Z,2.10
2022-10-21T11:35:25.952Z,1.58
2022-10-21T11:38:17.298Z,3.00
2022-10-21T11:41:27.190Z,3.90
2022-10-21T11:44:04.790Z,3.78
2022-10-21T11:47:31.523Z,3.05
2022-10-21T11:50:42.687Z,4.72
2022-10-21T11:53:16.829Z,1.20
2022-10-21T11:56:09.413Z,2.70
2022-10-21T11:58:57.507Z,1.48
2022-10-21T12:01:47.942Z,2.95
2022-10-21T12:04:21.672Z,3.63
2022-10-21T12:07:11.335Z,2.05
2022-10-21T12:09:45.714Z,0.80
2022-10-21T12:12:20.806Z,2.03
2022-10-21T12:14:51.376Z,2.92
2022-10-21T12:17:23.616Z,3.10
2022-10-21T12:20:08.270Z,4.03
2022-10-21T12:22:40.162Z,1.83
2022-10-21T12:25:29.181Z,1.75
2022-10-21T12:28:28.434Z,0.98
2022-10-21T12:31:25.500Z,1.52
2022-10-21T12:33:56.343Z,2.25
2022-10-21T12:36:26.904Z,1.48
2022-10-21T12:38:59.008Z,1.38
2022-10-21T12:41:35.312Z,1.80
2022-10-21T12:44:09.035Z,3.65
2022-10-21T12:46:42.901Z,2.65
2022-10-21T12:49:18.868Z,2.38
2022-10-21T12:51:57.091Z,2.25
2022-10-21T12:54:39.267Z,1.35
2022-10-21T12:57:13.098Z,1.77
2022-10-21T12:59:44.777Z,1.70
2022-10-21T13:02:29.344Z,1.50
2022-10-21T13:05:00.095Z,2.72
2022-10-21T13:07:33.360Z,2.90
2022-10-21T13:10:03.660Z,2.88
2022-10-21T13:12:35.167Z,1.75
2022-10-21T13:15:25.571Z,0.90
2022-10-21T13:17:59.336Z,1.92
2022-10-21T13:20:35.167Z,1.63
2022-10-21T13:23:32.811Z,3.42
2022-10-21T13:26:13.912Z,2.08
2022-10-21T13:28:56.904Z,1.23
2022-10-21T13:31:27.412Z,1.05
2022-10-21T13:33:58.111Z,2.03
2022-10-21T13:36:42.161Z,1.95
2022-10-21T13:39:24.295Z,1.10
2022-10-21T13:42:06.687Z,3.05
2022-10-21T13:44:42.773Z,2.50
2022-10-21T13:50:29.635Z,1.08
2022-10-21T13:53:02.720Z,5.43
2022-10-21T13:55:33.562Z,1.88
2022-10-21T13:58:04.036Z,2.03
2022-10-21T14:00:34.721Z,3.38
2022-10-21T14:03:07.201Z,1.10
2022-10-21T14:05:47.567Z,2.10
2022-10-21T14:08:29.120Z,2.40
2022-10-21T14:11:06.551Z,1.48
2022-10-21T14:13:38.990Z,2.17
2022-10-21T14:16:10.967Z,3.03
2022-10-21T14:18:49.126Z,4.72
2022-10-21T14:21:27.580Z,2.05
2022-10-21T14:23:59.416Z,2.25
2022-10-21T14:26:33.850Z,3.15
2022-10-21T14:29:05.282Z,1.10
2022-10-21T14:31:35.679Z,3.45
2022-10-21T14:34:08.377Z,2.65
2022-10-21T14:37:10.932Z,1.60
2022-10-21T14:39:42.558Z,1.60
2022-10-21T14:42:21.701Z,3.72
2022-10-21T14:44:56.038Z,3.75
2022-10-21T14:47:28.184Z,7.10
2022-10-21T14:50:02.119Z,2.55
2022-10-21T14:52:40.191Z,3.17
2022-10-21T14:55:16.213Z,3.30
2022-10-21T14:57:54.480Z,1.55
2022-10-21T15:00:44.198Z,1.42
2022-10-21T15:03:15.350Z,3.38
2022-10-21T15:05:49.352Z,1.73
2022-10-21T15:08:22.585Z,2.65
2022-10-21T15:10:58.999Z,4.05
2022-10-21T15:13:29.546Z,1.13
2022-10-21T15:16:01.453Z,2.03
2022-10-21T15:18:41.886Z,1.77
2022-10-21T15:21:16.603Z,1.92
2022-10-21T15:23:58.850Z,1.48
2022-10-21T15:26:36.852Z,3.50
2022-10-21T15:29:20.651Z,1.55
2022-10-21T15:31:51.034Z,1.23
2022-10-21T15:34:21.635Z,1.65
2022-10-21T15:36:52.150Z,3.55
2022-10-21T15:39:22.166Z,2.67
2022-10-21T15:41:57.509Z,3.45
2022-10-21T15:44:32.717Z,1.98
2022-10-21T15:47:06.645Z,4.28
2022-10-21T15:49:42.279Z,3.28
2022-10-21T15:52:13.146Z,2.55
2022-10-21T15:54:43.950Z,3.85
2022-10-21T15:57:22.721Z,1.33
2022-10-21T15:59:52.756Z,2.60
2022-10-21T16:02:23.129Z,1.98
2022-10-21T16:04:54.634Z,3.67
2022-10-21T16:07:37.088Z,4.47
2022-10-21T16:10:30.678Z,3.03
2022-10-21T16:13:01.289Z,2.63
2022-10-21T16:15:31.796Z,1.30
2022-10-21T16:18:02.229Z,3.72
2022-10-21T16:20:34.663Z,1.70
2022-10-21T16:23:05.771Z,1.05
2022-10-21T16:25:36.209Z,2.80
2022-10-21T16:28:20.630Z,2.40
2022-10-21T16:30:54.690Z,2.03
2022-10-21T16:33:25.039Z,1.70
2022-10-21T16:35:55.314Z,1.73
2022-10-21T16:38:25.661Z,2.30
2022-10-21T16:40:55.890Z,2.92
2022-10-21T16:43:26.329Z,2.30
2022-10-21T16:45:56.541Z,1.80
2022-10-21T16:48:29.774Z,2.40
2022-10-21T16:51:00.008Z,1.80
2022-10-21T16:53:30.325Z,2.22
2022-10-21T16:56:00.664Z,1.30
2022-10-21T16:58:31.438Z,2.42
2022-10-21T17:01:02.969Z,1.55
2022-10-21T17:03:35.601Z,4.05
2022-10-21T17:06:05.999Z,2.22
2022-10-21T17:08:36.371Z,2.28
2022-10-21T17:11:09.020Z,1.73
2022-10-21T17:13:39.328Z,1.73
2022-10-21T17:16:09.927Z,2.83
2022-10-21T17:18:41.450Z,1.65
2022-10-21T17:21:26.127Z,2.17
2022-10-21T17:23:57.833Z,2.10
2022-10-21T17:26:31.587Z,1.98
2022-10-21T17:29:05.067Z,1.40
2022-10-21T17:31:36.109Z,3.83
2022-10-21T17:34:08.643Z,1.25
2022-10-21T17:36:39.477Z,3.58
2022-10-21T17:39:09.825Z,1.88
2022-10-21T17:41:39.738Z,1.48
2022-10-21T17:44:13.248Z,2.50
2022-10-21T17:46:43.849Z,1.23
2022-10-21T17:49:16.195Z,1.77
2022-10-21T17:51:50.630Z,1.85
2022-10-21T17:54:25.952Z,8.85
2022-10-21T17:57:00.237Z,2.25
2022-10-21T17:59:33.799Z,2.47
2022-10-21T18:02:04.362Z,2.88
2022-10-21T18:04:35.409Z,4.30
2022-10-21T18:07:09.341Z,2.15
2022-10-21T18:09:41.084Z,2.38
2022-10-21T18:12:15.058Z,1.75
2022-10-21T18:14:45.749Z,1.83
2022-10-21T18:17:17.155Z,2.17
2022-10-21T18:19:48.428Z,2.30
2022-10-21T18:22:18.660Z,1.48
2022-10-21T18:24:49.027Z,3.72
2022-10-21T18:27:19.421Z,2.63
2022-10-21T18:29:50.325Z,2.33
2022-10-21T18:32:20.525Z,1.73
2022-10-21T18:34:52.078Z,2.47
2022-10-21T18:37:22.703Z,4.53
2022-10-21T18:39:56.668Z,4.80
2022-10-21T18:42:29.884Z,3.75
2022-10-21T18:45:00.226Z,5.88
2022-10-21T18:47:30.530Z,3.33
2022-10-21T18:50:00.975Z,4.32
2022-10-21T18:52:31.200Z,8.30
2022-10-21T18:55:03.152Z,2.55
2022-10-21T18:57:33.453Z,3.63
2022-10-21T19:00:03.853Z,4.10
2022-10-21T19:02:34.464Z,3.35
2022-10-21T19:05:06.121Z,7.25
2022-10-21T19:07:36.415Z,2.55
2022-10-21T19:10:07.431Z,3.97
2022-10-21T19:12:37.761Z,4.60
2022-10-21T19:15:12.167Z,3.78
2022-10-21T19:17:43.028Z,3.00
2022-10-21T19:20:14.817Z,4.18
2022-10-21T19:22:45.068Z,4.07
2022-10-21T19:25:15.968Z,3.83
2022-10-21T19:27:49.214Z,4.68
2022-10-21T19:30:19.869Z,2.22
2022-10-21T19:32:50.067Z,1.13
2022-10-21T19:35:20.930Z,1.33
2022-10-21T19:37:51.409Z,2.75
2022-10-21T19:40:22.332Z,1.98
2022-10-21T19:42:52.675Z,3.47
2022-10-21T19:45:26.054Z,4.05
2022-10-21T19:47:56.259Z,6.78
2022-10-21T19:50:26.804Z,2.28
2022-10-21T19:52:57.192Z,2.70
2022-10-21T19:55:28.065Z,1.38
2022-10-21T19:57:58.984Z,0.90
2022-10-21T20:00:32.675Z,2.50
2022-10-21T20:03:03.611Z,2.25
2022-10-21T20:05:38.043Z,5.80
2022-10-21T20:08:09.346Z,6.13
2022-10-21T20:10:39.966Z,3.53
2022-10-21T20:13:12.678Z,4.00
2022-10-21T20:15:49.454Z,3.30
2022-10-21T20:18:22.294Z,1.83
2022-10-21T20:20:56.303Z,3.28
2022-10-21T20:23:27.623Z,1.30
2022-10-21T20:26:00.743Z,1.80
2022-10-21T20:28:31.796Z,1.73
2022-10-21T20:31:28.709Z,4.82
2022-10-21T20:33:59.389Z,7.18
2022-10-21T20:36:33.524Z,1.98
2022-10-21T20:39:04.722Z,3.80
2022-10-21T20:41:38.520Z,2.97
2022-10-21T20:44:12.777Z,1.65
2022-10-21T20:46:43.824Z,3.15
2022-10-21T20:49:14.794Z,2.53
2022-10-21T20:51:47.337Z,1.80
2022-10-21T20:54:19.795Z,5.95
2022-10-21T20:56:51.185Z,5.72
2022-10-21T20:59:21.474Z,5.32
2022-10-21T21:01:52.203Z,5.72
2022-10-21T21:04:24.784Z,1.92
2022-10-21T21:06:55.949Z,7.00
2022-10-21T21:09:50.047Z,8.02
2022-10-21T21:12:17.730Z,3.72
2022-10-21T21:14:48.986Z,11.60
2022-10-21T21:17:19.783Z,7.97
2022-10-21T21:19:50.108Z,2.65
2022-10-21T21:22:24.984Z,2.55
2022-10-21T21:24:55.167Z,1.10
2022-10-21T21:27:29.487Z,1.98
2022-10-21T21:30:00.728Z,1.88
2022-10-21T21:32:31.125Z,3.38
2022-10-21T21:35:05.035Z,2.17
2022-10-21T21:37:46.488Z,3.33
2022-10-21T21:40:19.327Z,2.30
2022-10-21T21:42:49.716Z,3.10
2022-10-21T21:45:19.905Z,6.28
2022-10-21T21:47:50.227Z,1.73
2022-10-21T21:50:23.843Z,3.28
2022-10-21T21:52:54.194Z,2.25
2022-10-21T21:55:24.980Z,6.40
2022-10-21T21:57:55.293Z,1.00
2022-10-21T22:00:25.730Z,2.17
2022-10-21T22:02:56.118Z,3.38
2022-10-21T22:05:27.202Z,2.30
2022-10-21T22:07:57.635Z,2.75
2022-10-21T22:10:28.424Z,1.63
2022-10-21T22:12:58.766Z,2.25
2022-10-21T22:15:46.955Z,4.28
2022-10-21T22:18:19.227Z,4.32
2022-10-21T22:20:49.454Z,6.38
2022-10-21T22:23:21.611Z,2.28
2022-10-21T22:25:51.929Z,1.15
2022-10-21T22:28:22.779Z,2.05
2022-10-21T22:31:01.933Z,2.03
2022-10-21T22:33:35.343Z,3.13
2022-10-21T22:36:06.714Z,3.67
2022-10-21T22:38:37.575Z,2.28
2022-10-21T22:41:12.299Z,1.30
2022-10-21T22:43:44.006Z,1.05
2022-10-21T22:46:33.835Z,2.00
2022-10-21T22:49:06.478Z,1.88
2022-10-21T22:51:36.766Z,1.27
2022-10-21T22:54:29.595Z,2.70
2022-10-21T22:57:01.770Z,1.75
2022-10-21T22:59:32.566Z,1.75
2022-10-21T23:02:02.758Z,2.15
2022-10-21T23:04:33.498Z,2.88
2022-10-21T23:07:04.286Z,2.03
2022-10-21T23:09:34.890Z,1.85
2022-10-21T23:14:35.002Z,4.05
2022-10-21T23:17:05.743Z,3.20
2022-10-21T23:19:36.008Z,3.13
2022-10-21T23:22:07.368Z,3.75
2022-10-21T23:24:37.754Z,2.75
2022-10-21T23:27:08.372Z,2.45
2022-10-21T23:29:40.094Z,4.88
2022-10-21T23:32:11.470Z,8.73
2022-10-21T23:34:41.908Z,4.95
2022-10-21T23:37:12.642Z,5.70
2022-10-21T23:39:43.040Z,5.28
2022-10-21T23:42:13.986Z,3.53
2022-10-21T23:44:44.458Z,5.43
2022-10-21T23:47:15.131Z,6.88
2022-10-21T23:49:45.400Z,2.85
2022-10-21T23:52:16.080Z,5.03
2022-10-21T23:54:46.436Z,5.13
2022-10-21T23:57:18.171Z,6.88
2022-10-21T23:59:48.350Z,9.57
